createdAt,value
2023-02-20T00:00:38.145Z,1.91
2023-02-20T00:01:58.713Z,1.91
2023-02-20T00:03:01.627Z,1.91
2023-02-20T00:04:05.030Z,1.90
2023-02-20T00:05:08.086Z,1.91
2023-02-20T00:06:11.353Z,1.91
2023-02-20T00:07:14.657Z,1.91
2023-02-20T00:08:17.553Z,1.91
2023-02-20T00:09:20.458Z,1.92
2023-02-20T00:10:24.473Z,1.91
2023-02-20T00:11:27.350Z,1.90
2023-02-20T00:12:30.211Z,1.91
2023-02-20T00:13:33.149Z,1.91
2023-02-20T00:14:36.147Z,1.91
2023-02-20T00:15:39.104Z,1.91
2023-02-20T00:16:42.082Z,1.92
2023-02-20T00:17:47.591Z,1.92
2023-02-20T00:18:50.485Z,1.93
2023-02-20T00:19:53.305Z,1.94
2023-02-20T00:20:56.156Z,1.94
2023-02-20T00:21:59.067Z,1.96
2023-02-20T00:23:01.976Z,1.97
2023-02-20T00:24:05.094Z,1.97
2023-02-20T00:25:08.185Z,1.98
2023-02-20T00:26:13.382Z,1.98
2023-02-20T00:27:18.384Z,1.99
2023-02-20T00:28:22.545Z,2.00
2023-02-20T00:29:25.479Z,2.02
2023-02-20T00:30:28.387Z,2.02
2023-02-20T00:31:31.516Z,2.03
2023-02-20T00:32:34.463Z,2.04
2023-02-20T00:33:38.034Z,2.05
2023-02-20T00:34:41.023Z,2.05
2023-02-20T00:35:43.972Z,2.06
2023-02-20T00:36:46.862Z,2.06
2023-02-20T00:37:50.721Z,2.06
2023-02-20T00:38:54.401Z,2.06
2023-02-20T00:39:59.706Z,2.06
2023-02-20T00:41:05.061Z,2.06
2023-02-20T00:42:08.277Z,2.06
2023-02-20T00:43:11.165Z,2.06
2023-02-20T00:44:14.037Z,2.06
2023-02-20T00:45:18.143Z,2.06
2023-02-20T00:46:21.096Z,2.07
2023-02-20T00:47:25.658Z,2.07
2023-02-20T00:48:28.484Z,2.07
2023-02-20T00:49:51.394Z,2.07
2023-02-20T00:50:54.252Z,2.08
2023-02-20T00:51:57.099Z,2.08
2023-02-20T00:53:00.276Z,2.08
2023-02-20T00:54:03.145Z,2.09
2023-02-20T00:55:06.597Z,2.08
2023-02-20T00:56:09.730Z,2.10
2023-02-20T00:57:12.702Z,2.10
2023-02-20T00:58:15.572Z,2.11
2023-02-20T00:59:19.845Z,2.12
2023-02-20T01:00:27.931Z,2.12
2023-02-20T01:01:31.337Z,2.12
2023-02-20T01:02:34.357Z,2.12
2023-02-20T01:03:37.297Z,2.12
2023-02-20T01:04:40.251Z,2.13
2023-02-20T01:05:43.130Z,2.12
2023-02-20T01:06:46.036Z,2.13
2023-02-20T01:07:48.938Z,2.13
2023-02-20T01:08:52.663Z,2.15
2023-02-20T01:09:56.967Z,2.15
2023-02-20T01:10:59.990Z,2.15
2023-02-20T01:12:02.961Z,2.14
2023-02-20T01:13:05.909Z,2.15
2023-02-20T01:14:08.924Z,2.15
2023-02-20T01:15:13.815Z,2.15
2023-02-20T01:16:16.796Z,2.15
2023-02-20T01:17:19.700Z,2.16
2023-02-20T01:18:23.901Z,2.16
2023-02-20T01:19:28.866Z,2.16
2023-02-20T01:20:32.377Z,2.17
2023-02-20T01:21:35.273Z,2.17
2023-02-20T01:22:38.393Z,2.17
2023-02-20T01:23:41.220Z,2.17
2023-02-20T01:24:44.120Z,2.18
2023-02-20T01:25:47.032Z,2.18
2023-02-20T01:26:50.272Z,2.18
2023-02-20T01:27:53.432Z,2.17
2023-02-20T01:28:56.746Z,2.17
2023-02-20T01:29:59.632Z,2.17
2023-02-20T01:31:02.549Z,2.18
2023-02-20T01:32:05.577Z,2.17
2023-02-20T01:33:08.640Z,2.18
2023-02-20T01:34:12.110Z,2.17
2023-02-20T01:35:16.176Z,2.16
2023-02-20T01:36:19.190Z,2.16
2023-02-20T01:37:23.550Z,2.17
2023-02-20T01:38:26.434Z,2.17
2023-02-20T01:39:31.264Z,2.17
2023-02-20T01:40:35.124Z,2.16
2023-02-20T01:41:38.307Z,2.18
2023-02-20T01:42:41.140Z,2.18
2023-02-20T01:43:44.019Z,2.18
2023-02-20T01:44:46.865Z,2.19
2023-02-20T01:45:50.245Z,2.19
2023-02-20T01:46:58.412Z,2.20
2023-02-20T01:48:01.932Z,2.20
2023-02-20T01:49:09.704Z,2.21
2023-02-20T01:50:14.269Z,2.22
2023-02-20T01:51:17.713Z,2.24
2023-02-20T01:52:25.847Z,2.24
2023-02-20T01:53:30.949Z,2.25
2023-02-20T01:54:39.652Z,2.25
2023-02-20T01:55:54.152Z,2.25
2023-02-20T01:57:01.982Z,2.26
2023-02-20T01:58:12.834Z,2.26
2023-02-20T01:59:17.383Z,2.26
2023-02-20T02:00:24.558Z,2.26
2023-02-20T02:01:27.435Z,2.26
2023-02-20T02:02:33.462Z,2.26
2023-02-20T02:03:44.559Z,2.26
2023-02-20T02:04:49.355Z,2.26
2023-02-20T02:05:58.799Z,2.26
2023-02-20T02:07:02.592Z,2.25
2023-02-20T02:08:07.189Z,2.26
2023-02-20T02:09:49.606Z,2.25
2023-02-20T02:11:02.253Z,2.23
2023-02-20T02:12:05.765Z,2.23
2023-02-20T02:13:08.717Z,2.23
2023-02-20T02:14:15.474Z,2.22
2023-02-20T02:15:21.906Z,2.21
2023-02-20T02:17:07.646Z,2.21
2023-02-20T02:18:36.665Z,2.20
2023-02-20T02:20:04.769Z,2.19
2023-02-20T02:21:23.029Z,2.17
2023-02-20T02:22:48.058Z,2.18
2023-02-20T02:24:45.307Z,2.17
2023-02-20T02:26:05.247Z,2.15
2023-02-20T02:27:26.300Z,2.15
2023-02-20T02:28:35.117Z,2.14
2023-02-20T02:29:53.228Z,2.14
2023-02-20T02:31:00.055Z,2.12
2023-02-20T02:32:23.784Z,2.11
2023-02-20T02:33:32.631Z,2.11
2023-02-20T02:35:01.976Z,2.09
2023-02-20T02:36:48.467Z,2.08
2023-02-20T02:37:57.696Z,2.07
2023-02-20T02:39:10.847Z,2.07
2023-02-20T02:40:17.877Z,2.08
2023-02-20T02:41:59.238Z,2.08
2023-02-20T02:43:16.478Z,2.09
2023-02-20T02:44:25.655Z,2.09
2023-02-20T02:45:49.774Z,2.09
2023-02-20T02:46:59.958Z,2.10
2023-02-20T02:48:14.602Z,2.10
2023-02-20T02:49:30.606Z,2.10
2023-02-20T02:50:40.537Z,2.10
2023-02-20T02:51:48.136Z,2.10
2023-02-20T02:52:51.976Z,2.09
2023-02-20T02:54:16.565Z,2.10
2023-02-20T02:55:26.160Z,2.10
2023-02-20T02:56:36.221Z,2.10
2023-02-20T02:57:39.045Z,2.09
2023-02-20T02:58:42.318Z,2.09
2023-02-20T02:59:47.029Z,2.09
2023-02-20T03:01:01.608Z,2.09
2023-02-20T03:02:09.900Z,2.09
2023-02-20T03:03:27.811Z,2.10
2023-02-20T03:04:34.953Z,2.11
2023-02-20T03:05:49.783Z,2.13
2023-02-20T03:06:59.477Z,2.12
2023-02-20T03:08:05.721Z,2.12
2023-02-20T03:09:11.649Z,2.12
2023-02-20T03:10:20.779Z,2.12
2023-02-20T03:11:26.418Z,2.12
2023-02-20T03:12:31.259Z,2.11
2023-02-20T03:14:03.343Z,2.10
2023-02-20T03:15:33.485Z,2.10
2023-02-20T03:16:54.625Z,2.11
2023-02-20T03:18:25.911Z,2.11
2023-02-20T03:19:34.063Z,2.11
2023-02-20T03:20:43.292Z,2.09
2023-02-20T03:21:48.690Z,2.11
2023-02-20T03:22:58.481Z,2.12
2023-02-20T03:24:05.154Z,2.12
2023-02-20T03:25:19.185Z,2.12
2023-02-20T03:26:28.998Z,2.11
2023-02-20T03:27:42.994Z,2.11
2023-02-20T03:28:53.988Z,2.11
2023-02-20T03:29:58.712Z,2.10
2023-02-20T03:31:07.548Z,2.10
2023-02-20T03:32:31.923Z,2.10
2023-02-20T03:33:57.716Z,2.09
2023-02-20T03:35:21.783Z,2.08
2023-02-20T03:36:57.661Z,2.07
2023-02-20T03:38:22.800Z,2.05
2023-02-20T03:39:50.223Z,2.05
2023-02-20T03:41:13.885Z,2.03
2023-02-20T03:42:39.367Z,2.03
2023-02-20T03:43:50.485Z,2.03
2023-02-20T03:44:56.765Z,2.03
2023-02-20T03:46:03.767Z,2.03
2023-02-20T03:47:10.613Z,2.03
2023-02-20T03:48:40.465Z,2.02
2023-02-20T03:49:46.447Z,2.01
2023-02-20T03:51:10.234Z,2.00
2023-02-20T03:52:20.406Z,1.99
2023-02-20T03:53:25.900Z,1.98
2023-02-20T03:54:29.941Z,1.97
2023-02-20T03:55:33.341Z,1.97
2023-02-20T03:56:44.044Z,1.97
2023-02-20T03:57:55.812Z,1.96
2023-02-20T03:59:05.900Z,1.95
2023-02-20T04:00:17.232Z,1.95
2023-02-20T04:01:27.678Z,1.95
2023-02-20T04:02:42.563Z,1.94
2023-02-20T04:03:49.475Z,1.94
2023-02-20T04:04:56.084Z,1.94
2023-02-20T04:06:02.444Z,1.93
2023-02-20T04:07:18.861Z,1.93
2023-02-20T04:08:31.556Z,1.93
2023-02-20T04:09:38.902Z,1.92
2023-02-20T04:11:10.922Z,1.91
2023-02-20T04:12:22.284Z,1.91
2023-02-20T04:13:26.648Z,1.92
2023-02-20T04:14:32.475Z,1.93
2023-02-20T04:15:36.275Z,1.91
2023-02-20T04:16:51.181Z,1.95
2023-02-20T04:18:05.593Z,1.95
2023-02-20T04:19:08.811Z,1.96
2023-02-20T04:20:12.003Z,1.96
2023-02-20T04:21:39.991Z,1.96
2023-02-20T04:22:47.489Z,1.96
2023-02-20T04:24:17.366Z,1.95
2023-02-20T04:25:45.257Z,1.95
2023-02-20T04:26:48.696Z,1.94
2023-02-20T04:27:51.925Z,1.93
2023-02-20T04:28:55.071Z,1.92
2023-02-20T04:29:58.621Z,1.91
2023-02-20T04:31:01.505Z,1.91
2023-02-20T04:32:05.632Z,1.92
2023-02-20T04:33:14.566Z,1.92
2023-02-20T04:34:17.760Z,1.91
2023-02-20T04:35:21.987Z,1.91
2023-02-20T04:36:26.156Z,1.91
2023-02-20T04:37:30.295Z,1.92
2023-02-20T04:38:33.810Z,1.92
2023-02-20T04:39:37.586Z,1.92
2023-02-20T04:40:41.245Z,1.91
2023-02-20T04:41:44.706Z,1.91
2023-02-20T04:42:47.605Z,1.91
2023-02-20T04:44:10.528Z,1.92
2023-02-20T04:45:13.561Z,1.91
2023-02-20T04:46:17.976Z,1.90
2023-02-20T04:47:20.940Z,1.91
2023-02-20T04:48:23.818Z,1.92
2023-02-20T04:49:26.687Z,1.93
2023-02-20T04:50:33.226Z,1.94
2023-02-20T04:51:37.496Z,1.95
2023-02-20T04:52:41.843Z,1.97
2023-02-20T04:53:45.003Z,1.97
2023-02-20T04:54:49.562Z,2.00
2023-02-20T04:55:53.311Z,1.99
2023-02-20T04:56:58.237Z,2.00
2023-02-20T04:58:01.352Z,2.01
2023-02-20T04:59:08.636Z,2.02
2023-02-20T05:00:12.842Z,2.03
2023-02-20T05:01:16.655Z,2.04
2023-02-20T05:02:19.552Z,2.06
2023-02-20T05:03:22.411Z,2.07
2023-02-20T05:04:25.299Z,2.08
2023-02-20T05:05:29.626Z,2.09
2023-02-20T05:06:32.460Z,2.10
2023-02-20T05:07:35.274Z,2.11
2023-02-20T05:08:38.163Z,2.13
2023-02-20T05:09:43.483Z,2.14
2023-02-20T05:10:46.799Z,2.16
2023-02-20T05:11:49.682Z,2.17
2023-02-20T05:12:52.968Z,2.18
2023-02-20T05:13:55.850Z,2.20
2023-02-20T05:14:58.682Z,2.21
2023-02-20T05:16:01.589Z,2.22
2023-02-20T05:17:04.517Z,2.24
2023-02-20T05:18:07.379Z,2.25
2023-02-20T05:19:12.032Z,2.26
2023-02-20T05:20:16.235Z,2.28
2023-02-20T05:21:37.948Z,2.29
2023-02-20T05:22:41.247Z,2.30
2023-02-20T05:23:47.228Z,2.30
2023-02-20T05:24:51.937Z,2.30
2023-02-20T05:25:54.861Z,2.31
2023-02-20T05:26:58.517Z,2.31
2023-02-20T05:28:01.406Z,2.31
2023-02-20T05:29:05.030Z,2.32
2023-02-20T05:30:09.121Z,2.32
2023-02-20T05:31:13.323Z,2.33
2023-02-20T05:32:18.409Z,2.33
2023-02-20T05:33:21.250Z,2.34
2023-02-20T05:34:25.920Z,2.34
2023-02-20T05:35:29.304Z,2.35
2023-02-20T05:36:32.746Z,2.35
2023-02-20T05:37:35.588Z,2.36
2023-02-20T05:38:38.534Z,2.36
2023-02-20T05:39:41.510Z,2.37
2023-02-20T05:40:44.362Z,2.36
2023-02-20T05:41:47.355Z,2.36
2023-02-20T05:42:50.227Z,2.37
2023-02-20T05:43:57.537Z,2.37
2023-02-20T05:45:02.298Z,2.37
2023-02-20T05:46:05.226Z,2.36
2023-02-20T05:47:08.539Z,2.36
2023-02-20T05:48:15.179Z,2.36
2023-02-20T05:49:18.421Z,2.36
2023-02-20T05:50:21.235Z,2.36
2023-02-20T05:51:26.773Z,2.36
2023-02-20T05:52:29.610Z,2.36
2023-02-20T05:53:33.106Z,2.35
2023-02-20T05:54:36.422Z,2.36
2023-02-20T05:55:39.363Z,2.36
2023-02-20T05:56:46.382Z,2.37
2023-02-20T05:57:49.216Z,2.37
2023-02-20T05:58:52.386Z,2.37
2023-02-20T05:59:55.339Z,2.37
2023-02-20T06:00:58.169Z,2.38
2023-02-20T06:02:01.452Z,2.38
2023-02-20T06:03:07.842Z,2.39
2023-02-20T06:04:10.842Z,2.40
2023-02-20T06:05:14.495Z,2.40
2023-02-20T06:06:18.190Z,2.41
2023-02-20T06:07:21.077Z,2.41
2023-02-20T06:08:23.925Z,2.42
2023-02-20T06:09:26.788Z,2.42
2023-02-20T06:10:29.615Z,2.43
2023-02-20T06:11:32.463Z,2.44
2023-02-20T06:12:35.268Z,2.46
2023-02-20T06:13:42.310Z,2.47
2023-02-20T06:14:45.167Z,2.49
2023-02-20T06:15:48.077Z,2.52
2023-02-20T06:16:51.050Z,2.53
2023-02-20T06:17:53.970Z,2.54
2023-02-20T06:18:57.469Z,2.56
2023-02-20T06:20:00.527Z,2.58
2023-02-20T06:21:03.488Z,2.61
2023-02-20T06:22:06.522Z,2.62
2023-02-20T06:23:09.498Z,2.64
2023-02-20T06:24:12.376Z,2.66
2023-02-20T06:25:15.346Z,2.68
2023-02-20T06:26:18.935Z,2.69
2023-02-20T06:27:21.797Z,2.71
2023-02-20T06:28:24.734Z,2.73
2023-02-20T06:29:29.080Z,2.75
2023-02-20T06:30:32.478Z,2.77
2023-02-20T06:31:35.864Z,2.78
2023-02-20T06:32:38.914Z,2.80
2023-02-20T06:33:41.891Z,2.82
2023-02-20T06:34:45.680Z,2.85
2023-02-20T06:35:48.540Z,2.87
2023-02-20T06:36:51.418Z,2.89
2023-02-20T06:37:54.272Z,2.91
2023-02-20T06:38:58.389Z,2.92
2023-02-20T06:40:01.371Z,2.95
2023-02-20T06:41:04.374Z,2.96
2023-02-20T06:42:07.224Z,2.98
2023-02-20T06:43:10.410Z,2.99
2023-02-20T06:44:13.248Z,3.02
2023-02-20T06:45:16.203Z,3.03
2023-02-20T06:46:19.506Z,3.07
2023-02-20T06:47:22.378Z,3.09
2023-02-20T06:48:25.234Z,3.12
2023-02-20T06:49:28.142Z,3.13
2023-02-20T06:50:31.036Z,3.15
2023-02-20T06:51:34.662Z,3.18
2023-02-20T06:52:37.700Z,3.20
2023-02-20T06:53:42.604Z,3.22
2023-02-20T06:54:45.682Z,3.24
2023-02-20T06:55:48.516Z,3.26
2023-02-20T06:56:52.637Z,3.30
2023-02-20T06:57:55.512Z,3.33
2023-02-20T06:58:59.615Z,3.35
2023-02-20T07:00:04.163Z,3.37
2023-02-20T07:01:08.592Z,3.40
2023-02-20T07:02:12.908Z,3.42
2023-02-20T07:03:15.828Z,3.44
2023-02-20T07:04:27.968Z,3.46
2023-02-20T07:05:31.019Z,3.49
2023-02-20T07:06:33.858Z,3.51
2023-02-20T07:07:36.714Z,3.52
2023-02-20T07:08:39.627Z,3.54
2023-02-20T07:09:44.551Z,3.55
2023-02-20T07:10:47.674Z,3.57
2023-02-20T07:11:52.812Z,3.58
2023-02-20T07:12:55.619Z,3.61
2023-02-20T07:13:58.796Z,3.62
2023-02-20T07:15:01.712Z,3.64
2023-02-20T07:16:04.807Z,3.66
2023-02-20T07:17:07.746Z,3.69
2023-02-20T07:18:10.621Z,3.71
2023-02-20T07:19:13.445Z,3.73
2023-02-20T07:20:16.425Z,3.75
2023-02-20T07:21:19.398Z,3.77
2023-02-20T07:22:22.235Z,3.78
2023-02-20T07:23:25.249Z,3.80
2023-02-20T07:24:28.787Z,3.82
2023-02-20T07:25:31.714Z,3.83
2023-02-20T07:26:37.152Z,3.85
2023-02-20T07:27:40.017Z,3.88
2023-02-20T07:28:42.994Z,3.90
2023-02-20T07:29:46.749Z,3.92
2023-02-20T07:30:49.785Z,3.94
2023-02-20T07:31:52.649Z,3.97
2023-02-20T07:32:55.586Z,4.00
2023-02-20T07:33:59.196Z,4.02
2023-02-20T07:35:05.749Z,4.05
2023-02-20T07:36:12.061Z,4.08
2023-02-20T07:37:15.514Z,4.12
2023-02-20T07:38:18.732Z,4.15
2023-02-20T07:39:21.735Z,4.17
2023-02-20T07:40:24.568Z,4.19
2023-02-20T07:41:31.612Z,4.21
2023-02-20T07:42:35.058Z,4.22
2023-02-20T07:43:52.944Z,4.24
2023-02-20T07:44:55.790Z,4.26
2023-02-20T07:45:58.723Z,4.28
2023-02-20T07:47:01.660Z,4.29
2023-02-20T07:48:04.516Z,4.32
2023-02-20T07:49:07.381Z,4.33
2023-02-20T07:50:10.408Z,4.34
2023-02-20T07:51:13.743Z,4.36
2023-02-20T07:52:16.740Z,4.38
2023-02-20T07:53:21.770Z,4.40
2023-02-20T07:54:24.735Z,4.42
2023-02-20T07:55:27.991Z,4.45
2023-02-20T07:56:31.211Z,4.48
2023-02-20T07:57:36.431Z,4.49
2023-02-20T07:58:39.300Z,4.53
2023-02-20T07:59:42.151Z,4.57
2023-02-20T08:00:45.843Z,4.59
2023-02-20T08:01:48.879Z,4.61
2023-02-20T08:02:51.970Z,4.64
2023-02-20T08:03:54.898Z,4.65
2023-02-20T08:04:58.469Z,4.69
2023-02-20T08:06:01.412Z,4.74
2023-02-20T08:07:07.002Z,4.78
2023-02-20T08:08:09.803Z,4.83
2023-02-20T08:09:12.738Z,4.88
2023-02-20T08:10:18.382Z,4.92
2023-02-20T08:11:23.361Z,4.96
2023-02-20T08:12:26.210Z,4.99
2023-02-20T08:13:30.412Z,5.02
2023-02-20T08:14:33.242Z,5.04
2023-02-20T08:15:36.101Z,5.05
2023-02-20T08:16:38.949Z,5.05
2023-02-20T08:17:46.900Z,5.07
2023-02-20T08:18:50.446Z,5.07
2023-02-20T08:19:53.477Z,5.08
2023-02-20T08:20:56.357Z,5.11
2023-02-20T08:21:59.220Z,5.13
2023-02-20T08:23:02.188Z,5.16
2023-02-20T08:24:06.570Z,5.15
2023-02-20T08:25:09.471Z,5.13
2023-02-20T08:26:12.746Z,5.13
2023-02-20T08:27:15.857Z,5.12
2023-02-20T08:28:19.477Z,5.10
2023-02-20T08:29:22.303Z,5.09
2023-02-20T08:30:27.497Z,5.08
2023-02-20T08:31:32.887Z,5.08
2023-02-20T08:32:36.173Z,5.06
2023-02-20T08:33:39.120Z,5.05
2023-02-20T08:34:42.220Z,5.03
2023-02-20T08:35:45.143Z,5.02
2023-02-20T08:36:48.070Z,4.99
2023-02-20T08:37:50.944Z,4.94
2023-02-20T08:38:55.137Z,4.91
2023-02-20T08:39:58.002Z,4.86
2023-02-20T08:41:04.570Z,4.82
2023-02-20T08:42:07.752Z,4.78
2023-02-20T08:43:10.656Z,4.73
2023-02-20T08:44:14.146Z,4.70
2023-02-20T08:45:17.317Z,4.66
2023-02-20T08:46:20.190Z,4.61
2023-02-20T08:47:23.969Z,4.56
2023-02-20T08:48:26.841Z,4.50
2023-02-20T08:49:29.730Z,4.45
2023-02-20T08:50:32.956Z,4.41
2023-02-20T08:51:35.935Z,4.41
2023-02-20T08:52:38.796Z,4.40
2023-02-20T08:53:41.720Z,4.37
2023-02-20T08:54:49.850Z,4.34
2023-02-20T08:55:53.209Z,4.31
2023-02-20T08:56:56.080Z,4.30
2023-02-20T08:57:59.067Z,4.25
2023-02-20T08:59:02.095Z,4.21
2023-02-20T09:00:06.742Z,4.16
2023-02-20T09:01:09.655Z,4.13
2023-02-20T09:02:32.701Z,4.10
2023-02-20T09:03:39.201Z,4.06
2023-02-20T09:04:44.879Z,4.04
2023-02-20T09:05:47.865Z,4.02
2023-02-20T09:06:51.449Z,4.00
2023-02-20T09:07:54.347Z,3.99
2023-02-20T09:08:57.195Z,3.99
2023-02-20T09:10:00.121Z,3.98
2023-02-20T09:11:03.084Z,3.97
2023-02-20T09:12:07.248Z,3.96
2023-02-20T09:13:10.231Z,3.96
2023-02-20T09:14:13.444Z,3.95
2023-02-20T09:15:19.791Z,3.95
2023-02-20T09:16:24.371Z,3.94
2023-02-20T09:17:28.338Z,3.94
2023-02-20T09:18:33.519Z,3.95
2023-02-20T09:19:37.018Z,3.94
2023-02-20T09:20:40.832Z,3.93
2023-02-20T09:21:46.514Z,3.93
2023-02-20T09:22:50.890Z,3.93
2023-02-20T09:23:53.727Z,3.91
2023-02-20T09:24:56.641Z,3.89
2023-02-20T09:25:59.482Z,3.87
2023-02-20T09:27:03.990Z,3.85
2023-02-20T09:28:06.947Z,3.83
2023-02-20T09:29:09.836Z,3.82
2023-02-20T09:30:19.661Z,3.80
2023-02-20T09:31:23.133Z,3.79
2023-02-20T09:32:26.150Z,3.77
2023-02-20T09:33:29.316Z,3.75
2023-02-20T09:34:32.175Z,3.74
2023-02-20T09:35:35.120Z,3.73
2023-02-20T09:36:37.999Z,3.73
2023-02-20T09:37:40.878Z,3.72
2023-02-20T09:38:43.768Z,3.72
2023-02-20T09:39:46.599Z,3.71
2023-02-20T09:40:53.075Z,3.71
2023-02-20T09:42:22.224Z,3.70
2023-02-20T09:43:27.845Z,3.70
2023-02-20T09:44:36.644Z,3.71
2023-02-20T09:45:44.558Z,3.70
2023-02-20T09:46:50.886Z,3.69
2023-02-20T09:48:00.107Z,3.68
2023-02-20T09:49:15.271Z,3.68
2023-02-20T09:50:30.502Z,3.67
2023-02-20T09:51:36.257Z,3.67
2023-02-20T09:52:43.059Z,3.67
2023-02-20T09:53:45.880Z,3.67
2023-02-20T09:54:55.308Z,3.68
2023-02-20T09:56:00.518Z,3.68
2023-02-20T09:57:10.695Z,3.67
2023-02-20T09:58:28.893Z,3.68
2023-02-20T09:59:42.503Z,3.67
2023-02-20T10:00:47.082Z,3.68
2023-02-20T10:02:19.245Z,3.68
2023-02-20T10:03:37.583Z,3.68
2023-02-20T10:04:58.817Z,3.68
2023-02-20T10:06:15.418Z,3.67
2023-02-20T10:07:26.395Z,3.66
2023-02-20T10:08:29.751Z,3.64
2023-02-20T10:09:32.601Z,3.64
2023-02-20T10:10:41.882Z,3.63
2023-02-20T10:11:47.717Z,3.62
2023-02-20T10:12:57.014Z,3.61
2023-02-20T10:14:20.067Z,3.60
2023-02-20T10:15:44.544Z,3.57
2023-02-20T10:17:24.362Z,3.53
2023-02-20T10:18:46.233Z,3.50
2023-02-20T10:20:17.967Z,3.48
2023-02-20T10:21:23.877Z,3.45
2023-02-20T10:22:34.420Z,3.41
2023-02-20T10:24:04.871Z,3.38
2023-02-20T10:25:15.585Z,3.34
2023-02-20T10:26:21.540Z,3.31
2023-02-20T10:27:46.330Z,3.28
2023-02-20T10:28:51.097Z,3.24
2023-02-20T10:29:57.769Z,3.22
2023-02-20T10:31:18.981Z,3.20
2023-02-20T10:32:40.634Z,3.19
2023-02-20T10:33:47.754Z,3.17
2023-02-20T10:35:01.658Z,3.17
2023-02-20T10:36:37.454Z,3.18
2023-02-20T10:37:48.030Z,3.18
2023-02-20T10:39:09.623Z,3.18
2023-02-20T10:40:16.515Z,3.19
2023-02-20T10:41:25.347Z,3.20
2023-02-20T10:42:54.504Z,3.20
2023-02-20T10:44:23.393Z,3.19
2023-02-20T10:45:50.073Z,3.20
2023-02-20T10:47:23.584Z,3.21
2023-02-20T10:48:31.669Z,3.22
2023-02-20T10:49:46.744Z,3.23
2023-02-20T10:51:19.336Z,3.24
2023-02-20T10:52:37.461Z,3.24
2023-02-20T10:53:58.475Z,3.25
2023-02-20T10:55:26.186Z,3.25
2023-02-20T10:56:35.699Z,3.25
2023-02-20T10:57:48.404Z,3.25
2023-02-20T10:59:02.544Z,3.26
2023-02-20T11:00:20.341Z,3.27
2023-02-20T11:01:26.400Z,3.28
2023-02-20T11:02:34.907Z,3.28
2023-02-20T11:03:59.866Z,3.29
2023-02-20T11:05:16.087Z,3.29
2023-02-20T11:06:21.716Z,3.29
2023-02-20T11:07:25.030Z,3.30
2023-02-20T11:08:27.877Z,3.29
2023-02-20T11:09:30.840Z,3.29
2023-02-20T11:10:35.472Z,3.29
2023-02-20T11:11:44.398Z,3.28
2023-02-20T11:12:53.688Z,3.28
2023-02-20T11:13:59.855Z,3.28
2023-02-20T11:15:13.664Z,3.28
2023-02-20T11:16:47.969Z,3.28
2023-02-20T11:17:53.061Z,3.28
2023-02-20T11:19:06.230Z,3.28
2023-02-20T11:20:41.610Z,3.27
2023-02-20T11:21:47.804Z,3.27
2023-02-20T11:22:50.989Z,3.26
2023-02-20T11:23:56.635Z,3.25
2023-02-20T11:25:14.166Z,3.23
2023-02-20T11:26:33.541Z,3.22
2023-02-20T11:27:36.407Z,3.21
2023-02-20T11:28:40.385Z,3.21
2023-02-20T11:29:43.190Z,3.20
2023-02-20T11:30:50.115Z,3.20
2023-02-20T11:31:53.211Z,3.22
2023-02-20T11:33:21.390Z,3.22
2023-02-20T11:34:29.597Z,3.23
2023-02-20T11:35:37.362Z,3.24
2023-02-20T11:36:46.111Z,3.24
2023-02-20T11:38:14.727Z,3.28
2023-02-20T11:39:22.828Z,3.31
2023-02-20T11:40:32.234Z,3.35
2023-02-20T11:41:36.988Z,3.38
2023-02-20T11:42:40.588Z,3.40
2023-02-20T11:44:00.535Z,3.43
2023-02-20T11:45:23.536Z,3.47
2023-02-20T11:46:26.391Z,3.51
2023-02-20T11:47:30.541Z,3.53
2023-02-20T11:48:33.369Z,3.56
2023-02-20T11:49:36.688Z,3.59
2023-02-20T11:50:42.355Z,3.63
2023-02-20T11:51:48.462Z,3.67
2023-02-20T11:53:00.450Z,3.71
2023-02-20T11:54:29.904Z,3.74
2023-02-20T11:55:33.645Z,3.78
2023-02-20T11:56:37.017Z,3.81
2023-02-20T11:57:45.792Z,3.83
2023-02-20T11:58:48.659Z,3.86
2023-02-20T12:00:09.848Z,3.88
2023-02-20T12:01:38.176Z,3.91
2023-02-20T12:03:13.370Z,3.93
2023-02-20T12:04:22.537Z,3.96
2023-02-20T12:05:43.846Z,3.99
2023-02-20T12:06:47.342Z,4.04
2023-02-20T12:07:52.906Z,4.07
2023-02-20T12:09:02.561Z,4.11
2023-02-20T12:10:20.685Z,4.14
2023-02-20T12:11:28.278Z,4.16
2023-02-20T12:12:33.407Z,4.19
2023-02-20T12:13:39.962Z,4.22
2023-02-20T12:14:42.936Z,4.26
2023-02-20T12:15:55.312Z,4.29
2023-02-20T12:17:40.017Z,4.33
2023-02-20T12:18:53.807Z,4.37
2023-02-20T12:20:19.089Z,4.42
2023-02-20T12:21:33.400Z,4.44
2023-02-20T12:23:03.068Z,4.48
2023-02-20T12:24:05.812Z,4.51
2023-02-20T12:25:27.488Z,4.53
2023-02-20T12:26:49.357Z,4.56
2023-02-20T12:28:39.792Z,4.61
2023-02-20T12:29:55.022Z,4.66
2023-02-20T12:31:30.347Z,4.72
2023-02-20T12:32:57.089Z,4.76
2023-02-20T12:34:18.881Z,4.80
2023-02-20T12:35:35.833Z,4.84
2023-02-20T12:36:49.588Z,4.88
2023-02-20T12:38:07.492Z,4.92
2023-02-20T12:39:25.611Z,4.97
2023-02-20T12:41:06.096Z,5.00
2023-02-20T12:42:14.653Z,5.05
2023-02-20T12:43:17.647Z,5.07
2023-02-20T12:44:27.143Z,5.10
2023-02-20T12:45:45.074Z,5.12
2023-02-20T12:47:25.970Z,5.14
2023-02-20T12:48:53.259Z,5.16
2023-02-20T12:50:02.854Z,5.19
2023-02-20T12:51:32.227Z,5.22
2023-02-20T12:52:52.774Z,5.24
2023-02-20T12:54:08.503Z,5.27
2023-02-20T12:55:20.816Z,5.30
2023-02-20T12:56:48.312Z,5.33
2023-02-20T12:58:08.944Z,5.37
2023-02-20T13:00:01.378Z,5.40
2023-02-20T13:01:12.090Z,5.43
2023-02-20T13:02:35.756Z,5.45
2023-02-20T13:04:11.851Z,5.47
2023-02-20T13:05:20.463Z,5.49
2023-02-20T13:06:54.673Z,5.51
2023-02-20T13:08:03.965Z,5.52
2023-02-20T13:09:32.367Z,5.53
2023-02-20T13:10:45.936Z,5.56
2023-02-20T13:11:52.894Z,5.58
2023-02-20T13:12:56.606Z,5.60
2023-02-20T13:14:29.327Z,5.63
2023-02-20T13:15:49.711Z,5.65
2023-02-20T13:17:11.392Z,5.67
2023-02-20T13:18:28.083Z,5.69
2023-02-20T13:19:36.239Z,5.71
2023-02-20T13:20:45.679Z,5.73
2023-02-20T13:21:48.724Z,5.76
2023-02-20T13:23:06.667Z,5.78
2023-02-20T13:24:21.879Z,5.80
2023-02-20T13:25:45.680Z,5.83
2023-02-20T13:27:06.781Z,5.86
2023-02-20T13:28:48.367Z,5.88
2023-02-20T13:30:00.746Z,5.91
2023-02-20T13:31:10.399Z,5.94
2023-02-20T13:32:19.592Z,5.96
2023-02-20T13:33:28.733Z,5.97
2023-02-20T13:34:34.506Z,5.99
2023-02-20T13:35:40.487Z,6.00
2023-02-20T13:36:50.750Z,6.02
2023-02-20T13:37:56.804Z,6.03
2023-02-20T13:39:22.010Z,6.05
2023-02-20T13:40:28.285Z,6.08
2023-02-20T13:42:02.576Z,6.13
2023-02-20T13:43:24.983Z,6.17
2023-02-20T13:44:27.817Z,6.20
2023-02-20T13:46:17.930Z,6.22
2023-02-20T13:47:34.700Z,6.27
2023-02-20T13:48:37.580Z,6.33
2023-02-20T13:49:49.389Z,6.40
2023-02-20T13:51:32.476Z,6.45
2023-02-20T13:52:41.456Z,6.50
2023-02-20T13:53:50.331Z,6.52
2023-02-20T13:54:53.239Z,6.55
2023-02-20T13:55:56.081Z,6.57
2023-02-20T13:57:05.036Z,6.60
2023-02-20T13:58:14.711Z,6.62
2023-02-20T13:59:20.182Z,6.63
2023-02-20T14:00:42.445Z,6.67
2023-02-20T14:02:10.921Z,6.68
2023-02-20T14:03:13.884Z,6.70
2023-02-20T14:04:21.198Z,6.71
2023-02-20T14:05:30.788Z,6.73
2023-02-20T14:06:33.763Z,6.74
2023-02-20T14:07:40.641Z,6.76
2023-02-20T14:08:48.753Z,6.77
2023-02-20T14:10:05.564Z,6.79
2023-02-20T14:11:32.389Z,6.80
2023-02-20T14:12:36.272Z,6.82
2023-02-20T14:13:41.567Z,6.82
2023-02-20T14:14:46.178Z,6.85
2023-02-20T14:16:00.380Z,6.87
2023-02-20T14:17:09.654Z,6.90
2023-02-20T14:18:27.708Z,6.91
2023-02-20T14:19:31.074Z,6.91
2023-02-20T14:20:36.433Z,6.93
2023-02-20T14:21:39.301Z,6.95
2023-02-20T14:22:42.211Z,6.98
2023-02-20T14:23:47.029Z,6.99
2023-02-20T14:25:18.630Z,7.00
2023-02-20T14:26:31.386Z,7.01
2023-02-20T14:27:34.707Z,7.05
2023-02-20T14:28:46.239Z,7.06
2023-02-20T14:30:14.828Z,7.08
2023-02-20T14:31:23.879Z,7.09
2023-02-20T14:32:27.179Z,7.11
2023-02-20T14:33:33.424Z,7.11
2023-02-20T14:34:48.383Z,7.13
2023-02-20T14:36:00.526Z,7.14
2023-02-20T14:37:42.624Z,7.14
2023-02-20T14:39:04.212Z,7.18
2023-02-20T14:40:15.080Z,7.21
2023-02-20T14:41:24.219Z,7.22
2023-02-20T14:42:27.237Z,7.24
2023-02-20T14:43:30.169Z,7.26
2023-02-20T14:44:33.661Z,7.29
2023-02-20T14:45:36.570Z,7.30
2023-02-20T14:46:39.634Z,7.30
2023-02-20T14:47:57.928Z,7.32
2023-02-20T14:49:12.572Z,7.36
2023-02-20T14:50:25.801Z,7.40
2023-02-20T14:51:28.636Z,7.43
2023-02-20T14:52:31.512Z,7.44
2023-02-20T14:53:34.401Z,7.45
2023-02-20T14:54:39.899Z,7.46
2023-02-20T14:55:43.699Z,7.47
2023-02-20T14:56:48.256Z,7.49
2023-02-20T14:57:51.139Z,7.50
2023-02-20T14:58:54.005Z,7.53
2023-02-20T15:00:20.753Z,7.55
2023-02-20T15:01:26.773Z,7.58
2023-02-20T15:02:34.305Z,7.60
2023-02-20T15:03:38.256Z,7.63
2023-02-20T15:04:49.640Z,7.65
2023-02-20T15:05:53.412Z,7.67
2023-02-20T15:07:04.137Z,7.69
2023-02-20T15:08:19.432Z,7.70
2023-02-20T15:09:23.424Z,7.71
2023-02-20T15:10:39.727Z,7.73
2023-02-20T15:11:58.176Z,7.72
2023-02-20T15:13:07.513Z,7.73
2023-02-20T15:14:19.552Z,7.72
2023-02-20T15:15:22.557Z,7.73
2023-02-20T15:16:31.658Z,7.75
2023-02-20T15:17:38.367Z,7.76